sensor_id;sensor_type;location;lat;lon;timestamp;P1;durP1;ratioP1;P2;durP2;ratioP2
79139;SDS011;68546;59.142;37.948;2023-12-22T00:00:55;8.65;;;4.18;;
79139;SDS011;68546;59.142;37.948;2023-12-22T00:03:21;9.90;;;5.17;;
79139;SDS011;68546;59.142;37.948;2023-12-22T00:05:47;10.20;;;4.68;;
79139;SDS011;68546;59.142;37.948;2023-12-22T00:08:13;9.82;;;4.22;;
79139;SDS011;68546;59.142;37.948;2023-12-22T00:10:40;10.50;;;4.85;;
79139;SDS011;68546;59.142;37.948;2023-12-22T00:13:06;15.20;;;8.68;;
79139;SDS011;68546;59.142;37.948;2023-12-22T00:15:33;17.67;;;10.07;;
79139;SDS011;68546;59.142;37.948;2023-12-22T00:17:59;17.15;;;11.02;;
79139;SDS011;68546;59.142;37.948;2023-12-22T00:20:25;22.77;;;14.73;;
79139;SDS011;68546;59.142;37.948;2023-12-22T00:22:52;18.98;;;12.77;;
79139;SDS011;68546;59.142;37.948;2023-12-22T00:25:18;20.05;;;12.45;;
79139;SDS011;68546;59.142;37.948;2023-12-22T00:27:45;16.80;;;8.87;;
79139;SDS011;68546;59.142;37.948;2023-12-22T00:30:11;14.45;;;9.07;;
79139;SDS011;68546;59.142;37.948;2023-12-22T00:32:38;14.23;;;8.85;;
79139;SDS011;68546;59.142;37.948;2023-12-22T00:35:04;13.77;;;8.80;;
79139;SDS011;68546;59.142;37.948;2023-12-22T00:37:31;14.30;;;8.68;;
79139;SDS011;68546;59.142;37.948;2023-12-22T00:39:57;9.65;;;4.40;;
79139;SDS011;68546;59.142;37.948;2023-12-22T00:42:24;10.85;;;4.90;;
79139;SDS011;68546;59.142;37.948;2023-12-22T00:44:51;9.10;;;4.40;;
79139;SDS011;68546;59.142;37.948;2023-12-22T00:47:18;10.00;;;4.75;;
79139;SDS011;68546;59.142;37.948;2023-12-22T00:49:44;8.43;;;4.05;;
79139;SDS011;68546;59.142;37.948;2023-12-22T00:52:11;9.13;;;3.67;;
79139;SDS011;68546;59.142;37.948;2023-12-22T00:54:37;8.50;;;3.72;;
79139;SDS011;68546;59.142;37.948;2023-12-22T00:57:03;10.13;;;4.75;;
79139;SDS011;68546;59.142;37.948;2023-12-22T00:59:30;9.95;;;4.78;;
79139;SDS011;68546;59.142;37.948;2023-12-22T01:01:57;10.40;;;5.03;;
79139;SDS011;68546;59.142;37.948;2023-12-22T01:04:23;10.30;;;5.40;;
79139;SDS011;68546;59.142;37.948;2023-12-22T01:06:49;10.13;;;5.28;;
79139;SDS011;68546;59.142;37.948;2023-12-22T01:09:16;10.00;;;4.97;;
79139;SDS011;68546;59.142;37.948;2023-12-22T01:11:42;10.10;;;5.07;;
79139;SDS011;68546;59.142;37.948;2023-12-22T01:14:09;10.75;;;5.55;;
79139;SDS011;68546;59.142;37.948;2023-12-22T01:16:35;10.27;;;5.43;;
79139;SDS011;68546;59.142;37.948;2023-12-22T01:19:02;10.60;;;6.65;;
79139;SDS011;68546;59.142;37.948;2023-12-22T01:21:28;11.27;;;6.97;;
79139;SDS011;68546;59.142;37.948;2023-12-22T01:23:55;12.02;;;7.18;;
79139;SDS011;68546;59.142;37.948;2023-12-22T01:26:21;12.30;;;7.80;;
79139;SDS011;68546;59.142;37.948;2023-12-22T01:28:47;13.30;;;8.43;;
79139;SDS011;68546;59.142;37.948;2023-12-22T01:31:14;13.20;;;8.77;;
79139;SDS011;68546;59.142;37.948;2023-12-22T01:33:40;13.87;;;9.57;;
79139;SDS011;68546;59.142;37.948;2023-12-22T01:36:07;12.32;;;8.88;;
79139;SDS011;68546;59.142;37.948;2023-12-22T01:38:33;14.52;;;9.23;;
79139;SDS011;68546;59.142;37.948;2023-12-22T01:41:00;13.65;;;9.35;;
79139;SDS011;68546;59.142;37.948;2023-12-22T01:43:26;14.10;;;9.40;;
79139;SDS011;68546;59.142;37.948;2023-12-22T01:45:56;12.43;;;8.45;;
79139;SDS011;68546;59.142;37.948;2023-12-22T01:48:24;13.43;;;8.57;;
79139;SDS011;68546;59.142;37.948;2023-12-22T01:50:52;14.50;;;9.13;;
79139;SDS011;68546;59.142;37.948;2023-12-22T01:53:20;12.23;;;8.52;;
79139;SDS011;68546;59.142;37.948;2023-12-22T01:55:48;14.02;;;9.57;;
79139;SDS011;68546;59.142;37.948;2023-12-22T01:58:15;17.30;;;11.40;;
79139;SDS011;68546;59.142;37.948;2023-12-22T02:00:43;15.77;;;11.13;;
79139;SDS011;68546;59.142;37.948;2023-12-22T02:03:10;15.55;;;10.93;;
79139;SDS011;68546;59.142;37.948;2023-12-22T02:05:37;17.92;;;12.10;;
79139;SDS011;68546;59.142;37.948;2023-12-22T02:08:03;17.38;;;12.32;;
79139;SDS011;68546;59.142;37.948;2023-12-22T02:10:30;17.65;;;12.25;;
79139;SDS011;68546;59.142;37.948;2023-12-22T02:12:57;15.77;;;11.88;;
79139;SDS011;68546;59.142;37.948;2023-12-22T02:15:24;17.63;;;12.20;;
79139;SDS011;68546;59.142;37.948;2023-12-22T02:20:17;17.35;;;11.95;;
79139;SDS011;68546;59.142;37.948;2023-12-22T02:22:44;16.10;;;11.83;;
79139;SDS011;68546;59.142;37.948;2023-12-22T02:25:10;17.67;;;12.43;;
79139;SDS011;68546;59.142;37.948;2023-12-22T02:30:09;19.60;;;13.80;;
79139;SDS011;68546;59.142;37.948;2023-12-22T02:32:42;22.23;;;15.55;;
79139;SDS011;68546;59.142;37.948;2023-12-22T02:35:11;18.40;;;13.93;;
79139;SDS011;68546;59.142;37.948;2023-12-22T02:37:46;20.98;;;15.00;;
79139;SDS011;68546;59.142;37.948;2023-12-22T02:40:14;20.00;;;14.40;;
79139;SDS011;68546;59.142;37.948;2023-12-22T02:42:41;21.27;;;14.27;;
79139;SDS011;68546;59.142;37.948;2023-12-22T02:45:12;18.48;;;13.00;;
79139;SDS011;68546;59.142;37.948;2023-12-22T02:47:40;18.47;;;13.93;;
79139;SDS011;68546;59.142;37.948;2023-12-22T02:50:07;18.48;;;13.70;;
79139;SDS011;68546;59.142;37.948;2023-12-22T02:52:34;19.90;;;13.60;;
79139;SDS011;68546;59.142;37.948;2023-12-22T02:55:01;19.92;;;14.18;;
79139;SDS011;68546;59.142;37.948;2023-12-22T02:57:28;20.75;;;15.02;;
79139;SDS011;68546;59.142;37.948;2023-12-22T02:59:54;18.52;;;13.73;;
79139;SDS011;68546;59.142;37.948;2023-12-22T03:02:21;20.08;;;14.35;;
79139;SDS011;68546;59.142;37.948;2023-12-22T03:04:48;19.97;;;14.77;;
79139;SDS011;68546;59.142;37.948;2023-12-22T03:07:14;22.90;;;15.20;;
79139;SDS011;68546;59.142;37.948;2023-12-22T03:09:41;23.35;;;16.30;;
79139;SDS011;68546;59.142;37.948;2023-12-22T03:12:08;27.77;;;18.73;;
79139;SDS011;68546;59.142;37.948;2023-12-22T03:14:35;25.17;;;18.35;;
79139;SDS011;68546;59.142;37.948;2023-12-22T03:17:03;26.58;;;19.00;;
79139;SDS011;68546;59.142;37.948;2023-12-22T03:19:31;24.92;;;17.95;;
79139;SDS011;68546;59.142;37.948;2023-12-22T03:21:58;27.33;;;19.10;;
79139;SDS011;68546;59.142;37.948;2023-12-22T03:24:25;25.42;;;18.08;;
79139;SDS011;68546;59.142;37.948;2023-12-22T03:26:52;23.67;;;17.33;;
79139;SDS011;68546;59.142;37.948;2023-12-22T03:29:19;27.30;;;17.73;;
79139;SDS011;68546;59.142;37.948;2023-12-22T03:31:45;22.13;;;15.85;;
79139;SDS011;68546;59.142;37.948;2023-12-22T03:34:18;25.23;;;17.10;;
79139;SDS011;68546;59.142;37.948;2023-12-22T03:36:44;24.50;;;17.40;;
79139;SDS011;68546;59.142;37.948;2023-12-22T03:39:15;23.80;;;16.52;;
79139;SDS011;68546;59.142;37.948;2023-12-22T03:41:41;21.88;;;15.55;;
79139;SDS011;68546;59.142;37.948;2023-12-22T03:44:08;23.42;;;16.15;;
79139;SDS011;68546;59.142;37.948;2023-12-22T03:46:34;21.38;;;15.40;;
79139;SDS011;68546;59.142;37.948;2023-12-22T03:49:00;20.45;;;13.63;;
79139;SDS011;68546;59.142;37.948;2023-12-22T03:51:27;19.98;;;13.18;;
79139;SDS011;68546;59.142;37.948;2023-12-22T03:53:53;16.67;;;12.10;;
79139;SDS011;68546;59.142;37.948;2023-12-22T03:56:19;17.80;;;12.43;;
79139;SDS011;68546;59.142;37.948;2023-12-22T03:58:46;17.17;;;12.23;;
79139;SDS011;68546;59.142;37.948;2023-12-22T04:01:15;16.53;;;12.10;;
79139;SDS011;68546;59.142;37.948;2023-12-22T04:03:41;20.13;;;12.95;;
79139;SDS011;68546;59.142;37.948;2023-12-22T04:06:08;16.83;;;12.20;;
79139;SDS011;68546;59.142;37.948;2023-12-22T04:08:34;16.92;;;11.35;;
79139;SDS011;68546;59.142;37.948;2023-12-22T04:11:00;16.67;;;12.25;;
79139;SDS011;68546;59.142;37.948;2023-12-22T04:13:27;16.42;;;11.55;;
79139;SDS011;68546;59.142;37.948;2023-12-22T04:15:53;16.45;;;11.82;;
79139;SDS011;68546;59.142;37.948;2023-12-22T04:18:20;17.80;;;12.20;;
79139;SDS011;68546;59.142;37.948;2023-12-22T04:20:46;16.15;;;11.48;;
79139;SDS011;68546;59.142;37.948;2023-12-22T04:23:15;16.27;;;11.30;;
79139;SDS011;68546;59.142;37.948;2023-12-22T04:25:42;16.63;;;11.23;;
79139;SDS011;68546;59.142;37.948;2023-12-22T04:28:08;16.70;;;10.73;;
79139;SDS011;68546;59.142;37.948;2023-12-22T04:30:35;14.68;;;10.30;;
79139;SDS011;68546;59.142;37.948;2023-12-22T04:33:01;16.95;;;10.23;;
79139;SDS011;68546;59.142;37.948;2023-12-22T04:35:28;15.02;;;10.60;;
79139;SDS011;68546;59.142;37.948;2023-12-22T04:37:56;15.48;;;10.15;;
79139;SDS011;68546;59.142;37.948;2023-12-22T04:40:22;14.45;;;9.90;;
79139;SDS011;68546;59.142;37.948;2023-12-22T04:42:49;16.13;;;9.77;;
79139;SDS011;68546;59.142;37.948;2023-12-22T04:45:16;15.32;;;9.52;;
79139;SDS011;68546;59.142;37.948;2023-12-22T04:47:43;13.57;;;9.15;;
79139;SDS011;68546;59.142;37.948;2023-12-22T04:50:10;15.60;;;10.33;;
79139;SDS011;68546;59.142;37.948;2023-12-22T04:52:36;14.05;;;9.82;;
79139;SDS011;68546;59.142;37.948;2023-12-22T04:55:09;14.20;;;9.68;;
79139;SDS011;68546;59.142;37.948;2023-12-22T04:57:36;16.27;;;10.98;;
79139;SDS011;68546;59.142;37.948;2023-12-22T05:00:07;17.45;;;12.13;;
79139;SDS011;68546;59.142;37.948;2023-12-22T05:02:34;17.52;;;11.95;;
79139;SDS011;68546;59.142;37.948;2023-12-22T05:05:01;16.15;;;11.38;;
79139;SDS011;68546;59.142;37.948;2023-12-22T05:07:29;17.80;;;12.37;;
79139;SDS011;68546;59.142;37.948;2023-12-22T05:09:56;18.40;;;12.90;;
79139;SDS011;68546;59.142;37.948;2023-12-22T05:12:22;19.73;;;13.77;;
79139;SDS011;68546;59.142;37.948;2023-12-22T05:14:49;19.60;;;13.90;;
79139;SDS011;68546;59.142;37.948;2023-12-22T05:17:15;19.40;;;14.00;;
79139;SDS011;68546;59.142;37.948;2023-12-22T05:19:42;19.73;;;14.80;;
79139;SDS011;68546;59.142;37.948;2023-12-22T05:22:08;22.67;;;15.90;;
79139;SDS011;68546;59.142;37.948;2023-12-22T05:24:36;26.73;;;18.20;;
79139;SDS011;68546;59.142;37.948;2023-12-22T05:27:03;24.60;;;17.92;;
79139;SDS011;68546;59.142;37.948;2023-12-22T05:29:30;26.20;;;19.25;;
79139;SDS011;68546;59.142;37.948;2023-12-22T05:31:57;28.70;;;20.43;;
79139;SDS011;68546;59.142;37.948;2023-12-22T05:34:23;28.30;;;20.35;;
79139;SDS011;68546;59.142;37.948;2023-12-22T05:36:50;30.58;;;21.48;;
79139;SDS011;68546;59.142;37.948;2023-12-22T05:39:16;33.73;;;23.70;;
79139;SDS011;68546;59.142;37.948;2023-12-22T05:41:43;30.98;;;22.10;;
79139;SDS011;68546;59.142;37.948;2023-12-22T05:44:09;31.73;;;22.42;;
79139;SDS011;68546;59.142;37.948;2023-12-22T05:46:36;32.38;;;22.77;;
79139;SDS011;68546;59.142;37.948;2023-12-22T05:49:06;37.55;;;26.05;;
79139;SDS011;68546;59.142;37.948;2023-12-22T05:51:36;36.30;;;24.65;;
79139;SDS011;68546;59.142;37.948;2023-12-22T05:54:04;39.05;;;25.17;;
79139;SDS011;68546;59.142;37.948;2023-12-22T05:56:31;36.80;;;25.57;;
79139;SDS011;68546;59.142;37.948;2023-12-22T05:58:58;37.97;;;25.40;;
79139;SDS011;68546;59.142;37.948;2023-12-22T06:01:25;35.90;;;24.05;;
79139;SDS011;68546;59.142;37.948;2023-12-22T06:03:53;38.50;;;24.83;;
79139;SDS011;68546;59.142;37.948;2023-12-22T06:06:20;31.67;;;21.38;;
79139;SDS011;68546;59.142;37.948;2023-12-22T06:08:48;34.58;;;21.83;;
79139;SDS011;68546;59.142;37.948;2023-12-22T06:11:14;29.33;;;20.33;;
79139;SDS011;68546;59.142;37.948;2023-12-22T06:13:41;30.70;;;21.95;;
79139;SDS011;68546;59.142;37.948;2023-12-22T06:16:11;29.05;;;20.33;;
79139;SDS011;68546;59.142;37.948;2023-12-22T06:18:41;27.08;;;19.05;;
79139;SDS011;68546;59.142;37.948;2023-12-22T06:21:08;24.90;;;18.10;;
79139;SDS011;68546;59.142;37.948;2023-12-22T06:23:35;23.90;;;16.70;;
79139;SDS011;68546;59.142;37.948;2023-12-22T06:26:07;23.15;;;15.85;;
79139;SDS011;68546;59.142;37.948;2023-12-22T06:28:34;23.77;;;17.03;;
79139;SDS011;68546;59.142;37.948;2023-12-22T06:31:02;22.35;;;15.65;;
79139;SDS011;68546;59.142;37.948;2023-12-22T06:33:29;19.10;;;13.88;;
79139;SDS011;68546;59.142;37.948;2023-12-22T06:35:55;20.33;;;14.07;;
79139;SDS011;68546;59.142;37.948;2023-12-22T06:38:22;20.33;;;14.57;;
79139;SDS011;68546;59.142;37.948;2023-12-22T06:40:48;20.65;;;14.40;;
79139;SDS011;68546;59.142;37.948;2023-12-22T06:43:14;20.02;;;14.43;;
79139;SDS011;68546;59.142;37.948;2023-12-22T06:45:41;19.00;;;13.63;;
79139;SDS011;68546;59.142;37.948;2023-12-22T06:48:07;19.42;;;13.43;;
79139;SDS011;68546;59.142;37.948;2023-12-22T06:50:35;19.90;;;13.25;;
79139;SDS011;68546;59.142;37.948;2023-12-22T06:53:03;19.70;;;13.63;;
79139;SDS011;68546;59.142;37.948;2023-12-22T06:55:29;17.38;;;11.88;;
79139;SDS011;68546;59.142;37.948;2023-12-22T06:57:56;16.35;;;11.55;;
79139;SDS011;68546;59.142;37.948;2023-12-22T07:00:22;15.80;;;11.30;;
79139;SDS011;68546;59.142;37.948;2023-12-22T07:02:49;17.15;;;11.35;;
79139;SDS011;68546;59.142;37.948;2023-12-22T07:07:47;17.45;;;11.07;;
79139;SDS011;68546;59.142;37.948;2023-12-22T07:10:14;16.47;;;10.50;;
79139;SDS011;68546;59.142;37.948;2023-12-22T07:12:40;14.68;;;9.30;;
79139;SDS011;68546;59.142;37.948;2023-12-22T07:15:07;15.38;;;9.63;;
79139;SDS011;68546;59.142;37.948;2023-12-22T07:17:34;13.40;;;9.00;;
79139;SDS011;68546;59.142;37.948;2023-12-22T07:20:01;15.57;;;9.13;;
79139;SDS011;68546;59.142;37.948;2023-12-22T07:22:29;13.88;;;8.50;;
79139;SDS011;68546;59.142;37.948;2023-12-22T07:24:55;14.15;;;8.32;;
79139;SDS011;68546;59.142;37.948;2023-12-22T07:27:22;13.57;;;8.20;;
79139;SDS011;68546;59.142;37.948;2023-12-22T07:29:49;16.33;;;8.40;;
79139;SDS011;68546;59.142;37.948;2023-12-22T07:32:16;13.65;;;8.07;;
79139;SDS011;68546;59.142;37.948;2023-12-22T07:34:42;13.27;;;7.97;;
79139;SDS011;68546;59.142;37.948;2023-12-22T07:37:09;13.35;;;8.02;;
79139;SDS011;68546;59.142;37.948;2023-12-22T07:39:36;12.68;;;7.72;;
79139;SDS011;68546;59.142;37.948;2023-12-22T07:42:02;14.60;;;7.60;;
79139;SDS011;68546;59.142;37.948;2023-12-22T07:44:29;14.55;;;7.85;;
79139;SDS011;68546;59.142;37.948;2023-12-22T07:46:56;11.05;;;7.28;;
79139;SDS011;68546;59.142;37.948;2023-12-22T07:49:24;15.23;;;8.02;;
79139;SDS011;68546;59.142;37.948;2023-12-22T07:51:51;15.02;;;8.25;;
79139;SDS011;68546;59.142;37.948;2023-12-22T07:54:19;12.70;;;7.68;;
79139;SDS011;68546;59.142;37.948;2023-12-22T07:56:45;15.43;;;8.07;;
79139;SDS011;68546;59.142;37.948;2023-12-22T07:59:12;14.13;;;7.43;;
79139;SDS011;68546;59.142;37.948;2023-12-22T08:01:39;12.52;;;6.85;;
79139;SDS011;68546;59.142;37.948;2023-12-22T08:04:06;13.48;;;6.93;;
79139;SDS011;68546;59.142;37.948;2023-12-22T08:06:32;14.63;;;8.23;;
79139;SDS011;68546;59.142;37.948;2023-12-22T08:08:59;12.68;;;7.25;;
79139;SDS011;68546;59.142;37.948;2023-12-22T08:11:26;13.57;;;7.55;;
79139;SDS011;68546;59.142;37.948;2023-12-22T08:13:52;14.18;;;8.07;;
79139;SDS011;68546;59.142;37.948;2023-12-22T08:16:19;13.73;;;7.80;;
79139;SDS011;68546;59.142;37.948;2023-12-22T08:18:46;12.48;;;7.05;;
79139;SDS011;68546;59.142;37.948;2023-12-22T08:21:13;12.27;;;6.35;;
79139;SDS011;68546;59.142;37.948;2023-12-22T08:23:41;13.23;;;6.73;;
79139;SDS011;68546;59.142;37.948;2023-12-22T08:26:07;13.43;;;6.78;;
79139;SDS011;68546;59.142;37.948;2023-12-22T08:28:33;12.50;;;6.60;;
79139;SDS011;68546;59.142;37.948;2023-12-22T08:31:00;11.33;;;6.30;;
79139;SDS011;68546;59.142;37.948;2023-12-22T08:33:26;12.50;;;6.22;;
79139;SDS011;68546;59.142;37.948;2023-12-22T08:35:53;14.43;;;6.40;;
79139;SDS011;68546;59.142;37.948;2023-12-22T08:38:19;11.63;;;5.05;;
79139;SDS011;68546;59.142;37.948;2023-12-22T08:40:45;11.25;;;5.10;;
79139;SDS011;68546;59.142;37.948;2023-12-22T08:43:12;11.07;;;5.07;;
79139;SDS011;68546;59.142;37.948;2023-12-22T08:45:38;10.25;;;4.50;;
79139;SDS011;68546;59.142;37.948;2023-12-22T08:48:05;10.23;;;5.10;;
79139;SDS011;68546;59.142;37.948;2023-12-22T08:50:34;10.40;;;4.82;;
79139;SDS011;68546;59.142;37.948;2023-12-22T08:53:01;11.05;;;4.45;;
79139;SDS011;68546;59.142;37.948;2023-12-22T08:55:27;11.30;;;4.60;;
79139;SDS011;68546;59.142;37.948;2023-12-22T08:57:53;11.20;;;4.55;;
79139;SDS011;68546;59.142;37.948;2023-12-22T09:00:20;11.15;;;4.78;;
79139;SDS011;68546;59.142;37.948;2023-12-22T09:02:46;10.07;;;4.45;;
79139;SDS011;68546;59.142;37.948;2023-12-22T09:05:13;10.80;;;4.82;;
79139;SDS011;68546;59.142;37.948;2023-12-22T09:07:39;9.30;;;4.25;;
79139;SDS011;68546;59.142;37.948;2023-12-22T09:10:06;11.98;;;5.30;;
79139;SDS011;68546;59.142;37.948;2023-12-22T09:12:32;11.53;;;4.67;;
79139;SDS011;68546;59.142;37.948;2023-12-22T09:14:59;11.25;;;4.72;;
79139;SDS011;68546;59.142;37.948;2023-12-22T09:17:26;12.77;;;5.22;;
79139;SDS011;68546;59.142;37.948;2023-12-22T09:19:54;10.67;;;4.80;;
79139;SDS011;68546;59.142;37.948;2023-12-22T09:22:21;12.70;;;5.90;;
79139;SDS011;68546;59.142;37.948;2023-12-22T09:24:48;11.48;;;4.50;;
79139;SDS011;68546;59.142;37.948;2023-12-22T09:27:15;11.20;;;4.23;;
79139;SDS011;68546;59.142;37.948;2023-12-22T09:29:41;10.10;;;4.25;;
79139;SDS011;68546;59.142;37.948;2023-12-22T09:32:08;10.55;;;4.55;;
79139;SDS011;68546;59.142;37.948;2023-12-22T09:34:34;10.15;;;4.32;;
79139;SDS011;68546;59.142;37.948;2023-12-22T09:37:01;13.30;;;4.97;;
79139;SDS011;68546;59.142;37.948;2023-12-22T09:39:28;10.48;;;4.28;;
79139;SDS011;68546;59.142;37.948;2023-12-22T09:41:55;11.65;;;5.20;;
79139;SDS011;68546;59.142;37.948;2023-12-22T09:44:21;13.60;;;5.67;;
79139;SDS011;68546;59.142;37.948;2023-12-22T09:46:48;9.70;;;4.03;;
79139;SDS011;68546;59.142;37.948;2023-12-22T09:49:19;10.13;;;3.85;;
79139;SDS011;68546;59.142;37.948;2023-12-22T09:51:47;10.80;;;4.20;;
79139;SDS011;68546;59.142;37.948;2023-12-22T09:54:16;9.65;;;4.00;;
79139;SDS011;68546;59.142;37.948;2023-12-22T09:56:43;10.88;;;4.82;;
79139;SDS011;68546;59.142;37.948;2023-12-22T09:59:11;10.98;;;4.60;;
79139;SDS011;68546;59.142;37.948;2023-12-22T10:01:42;9.73;;;4.60;;
79139;SDS011;68546;59.142;37.948;2023-12-22T10:04:12;11.15;;;5.13;;
79139;SDS011;68546;59.142;37.948;2023-12-22T10:06:39;9.23;;;4.28;;
79139;SDS011;68546;59.142;37.948;2023-12-22T10:09:07;9.60;;;4.30;;
79139;SDS011;68546;59.142;37.948;2023-12-22T10:11:35;9.88;;;3.95;;
79139;SDS011;68546;59.142;37.948;2023-12-22T10:14:03;10.90;;;4.30;;
79139;SDS011;68546;59.142;37.948;2023-12-22T10:16:31;11.13;;;4.60;;
79139;SDS011;68546;59.142;37.948;2023-12-22T10:18:58;10.05;;;4.47;;
79139;SDS011;68546;59.142;37.948;2023-12-22T10:21:26;8.68;;;3.53;;
79139;SDS011;68546;59.142;37.948;2023-12-22T10:23:52;9.23;;;3.90;;
79139;SDS011;68546;59.142;37.948;2023-12-22T10:26:19;10.75;;;4.65;;
79139;SDS011;68546;59.142;37.948;2023-12-22T10:28:46;11.23;;;4.78;;
79139;SDS011;68546;59.142;37.948;2023-12-22T10:31:14;9.35;;;3.78;;
79139;SDS011;68546;59.142;37.948;2023-12-22T10:33:42;11.20;;;4.33;;
79139;SDS011;68546;59.142;37.948;2023-12-22T10:36:09;11.32;;;5.15;;
79139;SDS011;68546;59.142;37.948;2023-12-22T10:38:36;9.68;;;4.35;;
79139;SDS011;68546;59.142;37.948;2023-12-22T10:41:03;11.70;;;4.30;;
79139;SDS011;68546;59.142;37.948;2023-12-22T10:43:30;10.20;;;4.60;;
79139;SDS011;68546;59.142;37.948;2023-12-22T10:46:03;11.45;;;5.20;;
79139;SDS011;68546;59.142;37.948;2023-12-22T10:48:30;12.60;;;4.68;;
79139;SDS011;68546;59.142;37.948;2023-12-22T10:50:57;10.93;;;5.23;;
79139;SDS011;68546;59.142;37.948;2023-12-22T10:53:23;12.35;;;5.45;;
79139;SDS011;68546;59.142;37.948;2023-12-22T10:55:51;11.13;;;4.38;;
79139;SDS011;68546;59.142;37.948;2023-12-22T10:58:17;10.73;;;4.87;;
79139;SDS011;68546;59.142;37.948;2023-12-22T11:00:44;10.52;;;4.70;;
79139;SDS011;68546;59.142;37.948;2023-12-22T11:03:17;10.07;;;4.10;;
79139;SDS011;68546;59.142;37.948;2023-12-22T11:05:46;12.75;;;4.88;;
79139;SDS011;68546;59.142;37.948;2023-12-22T11:08:15;10.80;;;4.63;;
79139;SDS011;68546;59.142;37.948;2023-12-22T11:10:44;12.80;;;5.65;;
79139;SDS011;68546;59.142;37.948;2023-12-22T11:13:19;10.40;;;4.53;;
79139;SDS011;68546;59.142;37.948;2023-12-22T11:15:46;9.77;;;4.53;;
79139;SDS011;68546;59.142;37.948;2023-12-22T11:18:14;9.07;;;4.38;;
79139;SDS011;68546;59.142;37.948;2023-12-22T11:20:41;12.38;;;4.82;;
79139;SDS011;68546;59.142;37.948;2023-12-22T11:23:08;11.13;;;4.87;;
79139;SDS011;68546;59.142;37.948;2023-12-22T11:25:36;12.07;;;5.38;;
79139;SDS011;68546;59.142;37.948;2023-12-22T11:28:04;11.77;;;4.82;;
79139;SDS011;68546;59.142;37.948;2023-12-22T11:30:32;13.40;;;5.35;;
79139;SDS011;68546;59.142;37.948;2023-12-22T11:33:00;10.77;;;4.80;;
79139;SDS011;68546;59.142;37.948;2023-12-22T11:35:27;12.13;;;5.70;;
79139;SDS011;68546;59.142;37.948;2023-12-22T11:37:54;11.70;;;5.35;;
79139;SDS011;68546;59.142;37.948;2023-12-22T11:40:23;11.77;;;5.40;;
79139;SDS011;68546;59.142;37.948;2023-12-22T11:42:49;10.05;;;5.28;;
79139;SDS011;68546;59.142;37.948;2023-12-22T11:45:17;11.35;;;4.97;;
79139;SDS011;68546;59.142;37.948;2023-12-22T11:47:45;13.23;;;6.13;;
79139;SDS011;68546;59.142;37.948;2023-12-22T11:50:13;11.93;;;5.95;;
79139;SDS011;68546;59.142;37.948;2023-12-22T11:52:54;13.00;;;5.63;;
79139;SDS011;68546;59.142;37.948;2023-12-22T11:56:22;11.70;;;5.28;;
79139;SDS011;68546;59.142;37.948;2023-12-22T11:58:44;14.25;;;8.10;;
79139;SDS011;68546;59.142;37.948;2023-12-22T12:01:23;15.10;;;8.52;;
79139;SDS011;68546;59.142;37.948;2023-12-22T12:03:51;13.65;;;6.97;;
79139;SDS011;68546;59.142;37.948;2023-12-22T12:08:52;13.82;;;6.85;;
79139;SDS011;68546;59.142;37.948;2023-12-22T12:11:19;13.27;;;6.20;;
79139;SDS011;68546;59.142;37.948;2023-12-22T12:13:47;11.33;;;5.93;;
79139;SDS011;68546;59.142;37.948;2023-12-22T12:16:16;12.13;;;6.20;;
79139;SDS011;68546;59.142;37.948;2023-12-22T12:18:47;13.13;;;6.55;;
79139;SDS011;68546;59.142;37.948;2023-12-22T12:21:13;12.15;;;6.18;;
79139;SDS011;68546;59.142;37.948;2023-12-22T12:23:42;12.40;;;7.07;;
79139;SDS011;68546;59.142;37.948;2023-12-22T12:26:08;13.70;;;6.55;;
79139;SDS011;68546;59.142;37.948;2023-12-22T12:28:37;12.52;;;6.53;;
79139;SDS011;68546;59.142;37.948;2023-12-22T12:31:05;13.30;;;7.03;;
79139;SDS011;68546;59.142;37.948;2023-12-22T12:33:32;14.32;;;6.68;;
79139;SDS011;68546;59.142;37.948;2023-12-22T12:36:01;11.75;;;6.32;;
79139;SDS011;68546;59.142;37.948;2023-12-22T12:41:34;14.95;;;8.57;;
79139;SDS011;68546;59.142;37.948;2023-12-22T12:44:06;14.68;;;8.27;;
79139;SDS011;68546;59.142;37.948;2023-12-22T12:46:35;12.15;;;6.57;;
79139;SDS011;68546;59.142;37.948;2023-12-22T12:49:06;14.07;;;7.27;;
79139;SDS011;68546;59.142;37.948;2023-12-22T12:51:37;12.40;;;6.60;;
79139;SDS011;68546;59.142;37.948;2023-12-22T12:54:10;15.05;;;7.45;;
79139;SDS011;68546;59.142;37.948;2023-12-22T12:56:38;12.87;;;7.13;;
79139;SDS011;68546;59.142;37.948;2023-12-22T12:59:15;15.10;;;7.13;;
79139;SDS011;68546;59.142;37.948;2023-12-22T13:01:44;14.10;;;7.65;;
79139;SDS011;68546;59.142;37.948;2023-12-22T13:04:12;12.02;;;7.03;;
79139;SDS011;68546;59.142;37.948;2023-12-22T13:06:48;12.63;;;6.97;;
79139;SDS011;68546;59.142;37.948;2023-12-22T13:09:15;13.93;;;7.45;;
79139;SDS011;68546;59.142;37.948;2023-12-22T13:11:43;13.27;;;6.93;;
79139;SDS011;68546;59.142;37.948;2023-12-22T13:14:12;12.83;;;6.90;;
79139;SDS011;68546;59.142;37.948;2023-12-22T13:16:49;12.93;;;7.05;;
79139;SDS011;68546;59.142;37.948;2023-12-22T13:19:15;14.60;;;7.07;;
79139;SDS011;68546;59.142;37.948;2023-12-22T13:21:42;14.13;;;7.17;;
79139;SDS011;68546;59.142;37.948;2023-12-22T13:24:11;12.65;;;6.53;;
79139;SDS011;68546;59.142;37.948;2023-12-22T13:26:42;13.75;;;7.32;;
79139;SDS011;68546;59.142;37.948;2023-12-22T13:29:11;13.00;;;7.15;;
79139;SDS011;68546;59.142;37.948;2023-12-22T13:31:39;14.13;;;7.72;;
79139;SDS011;68546;59.142;37.948;2023-12-22T13:34:10;13.85;;;7.28;;
79139;SDS011;68546;59.142;37.948;2023-12-22T13:36:37;12.95;;;7.15;;
79139;SDS011;68546;59.142;37.948;2023-12-22T13:39:06;14.03;;;7.33;;
79139;SDS011;68546;59.142;37.948;2023-12-22T13:41:40;15.93;;;7.80;;
79139;SDS011;68546;59.142;37.948;2023-12-22T13:44:11;14.13;;;8.32;;
79139;SDS011;68546;59.142;37.948;2023-12-22T13:46:38;12.17;;;7.67;;
79139;SDS011;68546;59.142;37.948;2023-12-22T13:49:07;14.13;;;7.55;;
79139;SDS011;68546;59.142;37.948;2023-12-22T13:51:42;14.85;;;7.88;;
79139;SDS011;68546;59.142;37.948;2023-12-22T13:54:09;14.02;;;7.75;;
79139;SDS011;68546;59.142;37.948;2023-12-22T13:56:36;15.43;;;8.50;;
79139;SDS011;68546;59.142;37.948;2023-12-22T13:59:06;18.73;;;8.73;;
79139;SDS011;68546;59.142;37.948;2023-12-22T14:01:32;15.10;;;8.30;;
79139;SDS011;68546;59.142;37.948;2023-12-22T14:03:59;14.93;;;8.30;;
79139;SDS011;68546;59.142;37.948;2023-12-22T14:06:26;15.80;;;8.63;;
79139;SDS011;68546;59.142;37.948;2023-12-22T14:08:55;15.23;;;8.38;;
79139;SDS011;68546;59.142;37.948;2023-12-22T14:11:22;14.37;;;8.50;;
79139;SDS011;68546;59.142;37.948;2023-12-22T14:13:48;15.38;;;8.70;;
79139;SDS011;68546;59.142;37.948;2023-12-22T14:16:15;16.27;;;8.52;;
79139;SDS011;68546;59.142;37.948;2023-12-22T14:18:42;17.15;;;9.45;;
79139;SDS011;68546;59.142;37.948;2023-12-22T14:21:09;14.77;;;8.88;;
79139;SDS011;68546;59.142;37.948;2023-12-22T14:23:35;14.93;;;8.75;;
79139;SDS011;68546;59.142;37.948;2023-12-22T14:26:02;15.52;;;8.85;;
79139;SDS011;68546;59.142;37.948;2023-12-22T14:28:29;15.23;;;8.83;;
79139;SDS011;68546;59.142;37.948;2023-12-22T14:30:55;15.88;;;8.57;;
79139;SDS011;68546;59.142;37.948;2023-12-22T14:33:22;17.25;;;8.63;;